Туризм
Свали.ру
Погода в мире
ИА "Метеоновости"
Информеры
для сайтов
Туры
поиск и заказ
Авиабилеты
регулярные и чартерные рейсы
 
    На главную   Табло рисков задержки   Авиабилеты   Расписание авиарейсов

Duluth International Airport    ICAO или ID: KDLH, IATA: DLH
Большой аэропорт, регулярные рейсы
добавить в избранное


широта:
долгота:
высота над уровнем моря:
46°51'
-92°12'

435 м
Страна: США (United States)
погода
туры
отели
аэропорты
Риск задержки рейсов из-за погоды
Факт:  
Прогноз:  
 Карта
 




Прогноз погоды на 24 ч. с 12:00 20-05-2019 по 12:00 21-05-2019 UTC
Прогнозируемый риск задержки рейсов из-за погодных условий
 
KDLH на 24ч. с 20/12ч. до 21/12ч., незначительная облачность на 7500 м, ветер С(350) 3 м/c, гор. видимость: 9000+, ВНГО: 7500, ночь, день

Исходная телеграмма в коде TAF
KDLH 201130Z 2012/2112 35005KT P6SM FEW250

Раскодировка телеграмм производится в автоматическом режиме, в телеграммах могут содержаться ошибки, приводящие к их неправильной интерпретации.

Предупреждение: данные на этом сайте не могут быть использованы для планирования полётов и предоставляются только в информационных целях.
Найти аэропорт
По названию или городу
только регулярные рейсы

Избранные аэропорты
Список пуст



© 2008 Данио-Пресс. Все права защищены.
Использование материалов сайта возможно только с согласия администрации сервера.
По вопросам рекламы и размещения информации обращаться сюда.


 Рейтинг@Mail.ru  Rambler's Top100